createdAt,value
2018-10-19T00:00:29.000Z,34
2018-10-19T00:01:29.000Z,34
2018-10-19T00:02:30.000Z,33
2018-10-19T00:03:30.000Z,33
2018-10-19T00:04:30.000Z,33
2018-10-19T00:05:30.000Z,33
2018-10-19T00:06:30.000Z,33
2018-10-19T00:07:30.000Z,33
2018-10-19T00:08:30.000Z,34
2018-10-19T00:09:30.000Z,33
2018-10-19T00:10:30.000Z,33
2018-10-19T00:11:30.000Z,33
2018-10-19T00:13:30.000Z,33
2018-10-19T00:14:30.000Z,33
2018-10-19T00:15:30.000Z,34
2018-10-19T00:16:30.000Z,34
2018-10-19T00:17:30.000Z,33
2018-10-19T00:18:30.000Z,33
2018-10-19T00:19:30.000Z,33
2018-10-19T00:20:30.000Z,33
2018-10-19T00:21:30.000Z,33
2018-10-19T00:22:30.000Z,33
2018-10-19T00:23:30.000Z,33
2018-10-19T00:24:30.000Z,33
2018-10-19T00:25:30.000Z,33
2018-10-19T00:26:30.000Z,33
2018-10-19T00:27:30.000Z,33
2018-10-19T00:29:30.000Z,33
2018-10-19T00:30:30.000Z,33
2018-10-19T00:31:30.000Z,33
2018-10-19T00:32:30.000Z,33
2018-10-19T00:33:30.000Z,33
2018-10-19T00:35:30.000Z,33
2018-10-19T00:36:30.000Z,33
2018-10-19T00:37:30.000Z,33
2018-10-19T00:38:30.000Z,33
2018-10-19T00:39:30.000Z,33
2018-10-19T00:41:30.000Z,33
2018-10-19T00:42:30.000Z,33
2018-10-19T00:43:30.000Z,33
2018-10-19T00:44:30.000Z,33
2018-10-19T00:45:30.000Z,33
2018-10-19T00:46:30.000Z,33
2018-10-19T00:47:30.000Z,33
2018-10-19T00:49:30.000Z,33
2018-10-19T00:50:30.000Z,33
2018-10-19T00:51:30.000Z,33
2018-10-19T00:52:30.000Z,33
2018-10-19T00:53:30.000Z,33
2018-10-19T00:55:30.000Z,33
2018-10-19T00:56:30.000Z,33
2018-10-19T00:57:30.000Z,33
2018-10-19T00:58:30.000Z,33
2018-10-19T00:59:30.000Z,33
2018-10-19T01:00:30.000Z,33
2018-10-19T01:02:30.000Z,33
2018-10-19T01:03:30.000Z,33
2018-10-19T01:04:30.000Z,33
2018-10-19T01:05:30.000Z,33
2018-10-19T01:06:29.000Z,33
2018-10-19T01:08:29.000Z,33
2018-10-19T01:09:29.000Z,33
2018-10-19T01:10:29.000Z,33
2018-10-19T01:12:29.000Z,33
2018-10-19T01:13:29.000Z,33
2018-10-19T01:15:29.000Z,33
2018-10-19T01:17:29.000Z,33
2018-10-19T01:18:29.000Z,33
2018-10-19T01:19:29.000Z,34
2018-10-19T01:20:29.000Z,33
2018-10-19T01:21:29.000Z,34
2018-10-19T01:22:29.000Z,34
2018-10-19T01:23:29.000Z,33
2018-10-19T01:24:29.000Z,33
2018-10-19T01:25:29.000Z,33
2018-10-19T01:26:29.000Z,33
2018-10-19T01:27:29.000Z,33
2018-10-19T01:28:29.000Z,33
2018-10-19T01:29:29.000Z,33
2018-10-19T01:30:29.000Z,33
2018-10-19T01:31:29.000Z,33
2018-10-19T01:33:29.000Z,33
2018-10-19T01:34:29.000Z,33
2018-10-19T01:35:29.000Z,33
2018-10-19T01:36:29.000Z,33
2018-10-19T01:37:29.000Z,33
2018-10-19T01:38:29.000Z,33
2018-10-19T01:39:29.000Z,33
2018-10-19T01:40:29.000Z,33
2018-10-19T01:41:29.000Z,33
2018-10-19T01:43:29.000Z,33
2018-10-19T01:44:29.000Z,33
2018-10-19T01:45:29.000Z,33
2018-10-19T01:46:29.000Z,33
2018-10-19T01:47:29.000Z,33
2018-10-19T01:48:29.000Z,33
2018-10-19T01:49:29.000Z,33
2018-10-19T01:50:29.000Z,33
2018-10-19T01:52:29.000Z,33
2018-10-19T01:53:29.000Z,33
2018-10-19T01:54:29.000Z,33
2018-10-19T01:55:29.000Z,33
2018-10-19T01:56:29.000Z,33
2018-10-19T01:57:29.000Z,33
2018-10-19T01:58:29.000Z,33
2018-10-19T01:59:29.000Z,33
2018-10-19T02:00:29.000Z,33
2018-10-19T02:01:29.000Z,33
2018-10-19T02:03:29.000Z,33
2018-10-19T02:04:29.000Z,33
2018-10-19T02:05:29.000Z,33
2018-10-19T02:06:29.000Z,33
2018-10-19T02:07:29.000Z,33
2018-10-19T02:08:29.000Z,33
2018-10-19T02:09:29.000Z,33
2018-10-19T02:10:29.000Z,33
2018-10-19T02:11:29.000Z,33
2018-10-19T02:12:29.000Z,33
2018-10-19T02:14:29.000Z,33
2018-10-19T02:15:29.000Z,33
2018-10-19T02:16:29.000Z,33
2018-10-19T02:17:29.000Z,33
2018-10-19T02:19:29.000Z,33
2018-10-19T02:21:29.000Z,33
2018-10-19T02:22:29.000Z,33
2018-10-19T02:23:29.000Z,33
2018-10-19T02:24:29.000Z,33
2018-10-19T02:25:29.000Z,33
2018-10-19T02:26:29.000Z,33
2018-10-19T02:27:29.000Z,33
2018-10-19T02:28:29.000Z,33
2018-10-19T02:29:29.000Z,33
2018-10-19T02:30:29.000Z,33
2018-10-19T02:31:29.000Z,33
2018-10-19T02:32:29.000Z,33
2018-10-19T02:33:29.000Z,33
2018-10-19T02:34:29.000Z,33
2018-10-19T02:35:29.000Z,33
2018-10-19T02:36:29.000Z,33
2018-10-19T02:38:29.000Z,33
2018-10-19T02:39:29.000Z,33
2018-10-19T02:40:29.000Z,33
2018-10-19T02:41:29.000Z,33
2018-10-19T02:42:29.000Z,33
2018-10-19T02:43:29.000Z,33
2018-10-19T02:45:29.000Z,33
2018-10-19T02:47:29.000Z,33
2018-10-19T02:48:29.000Z,33
2018-10-19T02:49:29.000Z,33
2018-10-19T02:50:29.000Z,33
2018-10-19T02:51:29.000Z,33
2018-10-19T02:52:29.000Z,33
2018-10-19T02:53:29.000Z,33
2018-10-19T02:54:29.000Z,33
2018-10-19T02:55:29.000Z,33
2018-10-19T02:56:29.000Z,33
2018-10-19T02:57:29.000Z,33
2018-10-19T02:58:29.000Z,33
2018-10-19T02:59:29.000Z,33
2018-10-19T03:01:29.000Z,33
2018-10-19T03:02:29.000Z,33
2018-10-19T03:03:29.000Z,33
2018-10-19T03:05:29.000Z,33
2018-10-19T03:06:29.000Z,33
2018-10-19T03:07:29.000Z,33
2018-10-19T03:08:29.000Z,33
2018-10-19T03:09:29.000Z,33
2018-10-19T03:10:29.000Z,33
2018-10-19T03:11:29.000Z,33
2018-10-19T03:12:29.000Z,33
2018-10-19T03:13:29.000Z,33
2018-10-19T03:14:29.000Z,33
2018-10-19T03:16:29.000Z,33
2018-10-19T03:17:29.000Z,33
2018-10-19T03:18:29.000Z,33
2018-10-19T03:19:29.000Z,33
2018-10-19T03:20:29.000Z,33
2018-10-19T03:21:29.000Z,33
2018-10-19T03:22:29.000Z,33
2018-10-19T03:23:29.000Z,33
2018-10-19T03:24:29.000Z,33
2018-10-19T03:25:29.000Z,33
2018-10-19T03:26:29.000Z,33
2018-10-19T03:27:29.000Z,33
2018-10-19T03:28:29.000Z,33
2018-10-19T03:29:29.000Z,33
2018-10-19T03:30:29.000Z,33
2018-10-19T03:31:29.000Z,33
2018-10-19T03:32:29.000Z,33
2018-10-19T03:33:29.000Z,33
2018-10-19T03:34:29.000Z,33
2018-10-19T03:35:29.000Z,33
2018-10-19T03:36:29.000Z,33
2018-10-19T03:38:29.000Z,33
2018-10-19T03:39:29.000Z,33
2018-10-19T03:40:29.000Z,33
2018-10-19T03:41:29.000Z,33
2018-10-19T03:42:29.000Z,33
2018-10-19T03:43:29.000Z,33
2018-10-19T03:44:29.000Z,33
2018-10-19T03:45:29.000Z,33
2018-10-19T03:47:29.000Z,33
2018-10-19T03:48:29.000Z,33
2018-10-19T03:49:29.000Z,33
2018-10-19T03:50:29.000Z,33
2018-10-19T03:51:29.000Z,33
2018-10-19T03:52:29.000Z,33
2018-10-19T03:54:29.000Z,33
2018-10-19T03:55:29.000Z,33
2018-10-19T03:56:29.000Z,33
2018-10-19T03:57:29.000Z,33
2018-10-19T03:58:29.000Z,33
2018-10-19T03:59:29.000Z,33
2018-10-19T04:00:29.000Z,33
2018-10-19T04:01:29.000Z,33
2018-10-19T04:02:29.000Z,33
2018-10-19T04:04:29.000Z,33
2018-10-19T04:05:29.000Z,33
2018-10-19T04:06:29.000Z,33
2018-10-19T04:07:29.000Z,33
2018-10-19T04:08:29.000Z,33
2018-10-19T04:10:29.000Z,33
2018-10-19T04:11:29.000Z,33
2018-10-19T04:12:29.000Z,33
2018-10-19T04:13:29.000Z,33
2018-10-19T04:15:29.000Z,33
2018-10-19T04:16:29.000Z,33
2018-10-19T04:18:29.000Z,33
2018-10-19T04:20:29.000Z,33
2018-10-19T04:21:29.000Z,33
2018-10-19T04:22:29.000Z,33
2018-10-19T04:23:29.000Z,33
2018-10-19T04:24:29.000Z,33
2018-10-19T04:25:29.000Z,33
2018-10-19T04:26:29.000Z,33
2018-10-19T04:27:29.000Z,33
2018-10-19T04:28:29.000Z,33
2018-10-19T04:29:29.000Z,33
2018-10-19T04:30:29.000Z,33
2018-10-19T04:32:29.000Z,33
2018-10-19T04:33:29.000Z,34
2018-10-19T04:34:29.000Z,34
2018-10-19T04:35:29.000Z,34
2018-10-19T04:36:29.000Z,34
2018-10-19T04:37:29.000Z,34
2018-10-19T04:38:29.000Z,34
2018-10-19T04:39:29.000Z,34
2018-10-19T04:40:29.000Z,34
2018-10-19T04:42:29.000Z,34
2018-10-19T04:43:29.000Z,34
2018-10-19T04:44:29.000Z,34
2018-10-19T04:45:29.000Z,34
2018-10-19T04:46:29.000Z,34
2018-10-19T04:48:29.000Z,34
2018-10-19T04:49:29.000Z,34
2018-10-19T04:50:29.000Z,34
2018-10-19T04:51:29.000Z,34
2018-10-19T04:52:29.000Z,34
2018-10-19T04:53:29.000Z,34
2018-10-19T04:54:29.000Z,34
2018-10-19T04:55:29.000Z,34
2018-10-19T04:56:29.000Z,34
2018-10-19T04:57:29.000Z,34
2018-10-19T04:58:29.000Z,34
2018-10-19T05:00:29.000Z,34
2018-10-19T05:01:29.000Z,34
2018-10-19T05:02:29.000Z,34
2018-10-19T05:03:29.000Z,34
2018-10-19T05:04:29.000Z,34
2018-10-19T05:05:29.000Z,34
2018-10-19T05:06:29.000Z,34
2018-10-19T05:07:29.000Z,34
2018-10-19T05:09:29.000Z,34
2018-10-19T05:10:29.000Z,34
2018-10-19T05:11:29.000Z,34
2018-10-19T05:13:29.000Z,34
2018-10-19T05:14:29.000Z,34
2018-10-19T05:15:29.000Z,34
2018-10-19T05:16:29.000Z,34
2018-10-19T05:17:29.000Z,34
2018-10-19T05:18:29.000Z,34
2018-10-19T05:19:29.000Z,34
2018-10-19T05:20:30.000Z,34
2018-10-19T05:21:30.000Z,34
2018-10-19T05:22:30.000Z,34
2018-10-19T05:23:30.000Z,34
2018-10-19T05:24:30.000Z,34
2018-10-19T05:25:30.000Z,34
2018-10-19T05:26:30.000Z,34
2018-10-19T05:27:30.000Z,34
2018-10-19T05:29:30.000Z,34
2018-10-19T05:30:30.000Z,34
2018-10-19T05:31:30.000Z,33
2018-10-19T05:32:30.000Z,34
2018-10-19T05:33:30.000Z,33
2018-10-19T05:34:30.000Z,33
2018-10-19T05:35:30.000Z,34
2018-10-19T05:36:30.000Z,33
2018-10-19T05:37:30.000Z,33
2018-10-19T05:38:30.000Z,33
2018-10-19T05:39:30.000Z,33
2018-10-19T05:40:30.000Z,33
2018-10-19T05:41:30.000Z,33
2018-10-19T05:42:30.000Z,33
2018-10-19T05:43:30.000Z,33
2018-10-19T05:44:30.000Z,33
2018-10-19T05:45:30.000Z,33
2018-10-19T05:47:30.000Z,33
2018-10-19T05:48:30.000Z,34
2018-10-19T05:49:30.000Z,34
2018-10-19T05:50:30.000Z,34
2018-10-19T05:51:30.000Z,34
2018-10-19T05:53:30.000Z,34
2018-10-19T05:54:30.000Z,34
2018-10-19T05:55:30.000Z,34
2018-10-19T05:56:30.000Z,34
2018-10-19T05:57:30.000Z,34
2018-10-19T05:58:30.000Z,34
2018-10-19T05:59:30.000Z,34
2018-10-19T06:00:30.000Z,34
2018-10-19T06:01:30.000Z,34
2018-10-19T06:02:30.000Z,34
2018-10-19T06:03:30.000Z,34
2018-10-19T06:04:30.000Z,34
2018-10-19T06:06:30.000Z,34
2018-10-19T06:07:30.000Z,34
2018-10-19T06:08:30.000Z,34
2018-10-19T06:09:30.000Z,34
2018-10-19T06:10:30.000Z,34
2018-10-19T06:11:30.000Z,34
2018-10-19T06:12:30.000Z,34
2018-10-19T06:13:30.000Z,34
2018-10-19T06:14:30.000Z,34
2018-10-19T06:15:30.000Z,34
2018-10-19T06:16:30.000Z,34
2018-10-19T06:17:30.000Z,34
2018-10-19T06:18:30.000Z,34
2018-10-19T06:19:30.000Z,35
2018-10-19T06:20:30.000Z,34
2018-10-19T06:21:30.000Z,34
2018-10-19T06:23:30.000Z,34
2018-10-19T06:24:30.000Z,34
2018-10-19T06:25:30.000Z,34
2018-10-19T06:26:30.000Z,34
2018-10-19T06:27:30.000Z,34
2018-10-19T06:28:30.000Z,34
2018-10-19T06:29:30.000Z,34
2018-10-19T06:30:30.000Z,34
2018-10-19T06:31:30.000Z,34
2018-10-19T06:33:30.000Z,34
2018-10-19T06:34:30.000Z,34
2018-10-19T06:35:30.000Z,34
2018-10-19T06:36:30.000Z,34
2018-10-19T06:37:30.000Z,34
2018-10-19T06:38:30.000Z,34
2018-10-19T06:39:30.000Z,34
2018-10-19T06:40:30.000Z,34
2018-10-19T06:41:30.000Z,34
2018-10-19T06:42:30.000Z,34
2018-10-19T06:43:30.000Z,34
2018-10-19T06:44:30.000Z,34
2018-10-19T06:45:30.000Z,34
2018-10-19T06:46:30.000Z,34
2018-10-19T06:47:30.000Z,34
2018-10-19T06:48:30.000Z,34
2018-10-19T06:49:30.000Z,34
2018-10-19T06:50:30.000Z,34
2018-10-19T06:51:30.000Z,34
2018-10-19T06:52:30.000Z,34
2018-10-19T06:54:30.000Z,33
2018-10-19T06:55:30.000Z,33
2018-10-19T06:56:30.000Z,33
2018-10-19T06:57:30.000Z,33
2018-10-19T06:58:30.000Z,33
2018-10-19T06:59:30.000Z,33
2018-10-19T07:00:30.000Z,34
2018-10-19T07:01:30.000Z,33
2018-10-19T07:02:30.000Z,33
2018-10-19T07:03:30.000Z,33
2018-10-19T07:04:30.000Z,33
2018-10-19T07:05:30.000Z,33
2018-10-19T07:06:30.000Z,33
2018-10-19T07:07:30.000Z,33
2018-10-19T07:08:30.000Z,33
2018-10-19T07:09:30.000Z,33
2018-10-19T07:10:30.000Z,33
2018-10-19T07:11:30.000Z,33
2018-10-19T07:13:30.000Z,33
2018-10-19T07:14:30.000Z,33
2018-10-19T07:15:30.000Z,33
2018-10-19T07:16:30.000Z,33
2018-10-19T07:18:30.000Z,33
2018-10-19T07:19:30.000Z,33
2018-10-19T07:20:30.000Z,33
2018-10-19T07:21:30.000Z,33
2018-10-19T07:23:30.000Z,33
2018-10-19T07:24:30.000Z,33
2018-10-19T07:25:30.000Z,33
2018-10-19T07:26:30.000Z,33
2018-10-19T07:27:30.000Z,33
2018-10-19T07:28:30.000Z,33
2018-10-19T07:29:30.000Z,33
2018-10-19T07:30:30.000Z,33
2018-10-19T07:31:30.000Z,33
2018-10-19T07:32:30.000Z,33
2018-10-19T07:33:30.000Z,33
2018-10-19T07:34:30.000Z,33
2018-10-19T07:35:30.000Z,33
2018-10-19T07:36:30.000Z,33
2018-10-19T07:37:30.000Z,33
2018-10-19T07:38:30.000Z,33
2018-10-19T07:40:30.000Z,32
2018-10-19T07:41:30.000Z,32
2018-10-19T07:42:30.000Z,32
2018-10-19T07:44:30.000Z,32
2018-10-19T07:45:30.000Z,33
2018-10-19T07:46:30.000Z,33
2018-10-19T07:47:30.000Z,33
2018-10-19T07:48:30.000Z,32
2018-10-19T07:49:30.000Z,33
2018-10-19T07:50:30.000Z,32
2018-10-19T07:53:29.000Z,32
2018-10-19T07:54:29.000Z,32
2018-10-19T07:55:29.000Z,32
2018-10-19T07:56:29.000Z,32
2018-10-19T07:57:29.000Z,32
2018-10-19T07:58:29.000Z,32
2018-10-19T08:23:15.000Z,34
2018-10-19T08:24:15.000Z,34
2018-10-19T08:25:15.000Z,34
2018-10-19T08:26:15.000Z,34
2018-10-19T08:28:15.000Z,33
2018-10-19T08:29:15.000Z,34
2018-10-19T08:30:15.000Z,33
2018-10-19T08:31:15.000Z,33
2018-10-19T08:32:15.000Z,33
2018-10-19T08:33:15.000Z,33
2018-10-19T08:34:15.000Z,33
2018-10-19T08:35:15.000Z,33
2018-10-19T08:36:15.000Z,33
2018-10-19T08:37:15.000Z,33
2018-10-19T08:39:15.000Z,33
2018-10-19T08:40:15.000Z,32
2018-10-19T08:41:15.000Z,32
2018-10-19T08:43:15.000Z,32
2018-10-19T08:44:15.000Z,32
2018-10-19T08:45:15.000Z,32
2018-10-19T08:46:15.000Z,32
2018-10-19T08:47:15.000Z,32
2018-10-19T08:48:15.000Z,32
2018-10-19T08:49:15.000Z,32
2018-10-19T08:50:15.000Z,32
2018-10-19T08:51:15.000Z,32
2018-10-19T08:53:15.000Z,32
2018-10-19T08:55:15.000Z,32
2018-10-19T08:56:15.000Z,32
2018-10-19T08:57:15.000Z,32
2018-10-19T08:58:15.000Z,32
2018-10-19T08:59:15.000Z,32
2018-10-19T09:00:15.000Z,32
2018-10-19T09:01:15.000Z,32
2018-10-19T09:02:15.000Z,32
2018-10-19T09:03:15.000Z,32
2018-10-19T09:04:15.000Z,32
2018-10-19T09:06:15.000Z,32
2018-10-19T09:07:15.000Z,32
2018-10-19T09:08:15.000Z,32
2018-10-19T09:09:15.000Z,32
2018-10-19T09:10:15.000Z,32
2018-10-19T09:11:15.000Z,32
2018-10-19T09:12:15.000Z,31
2018-10-19T09:13:15.000Z,31
2018-10-19T09:15:15.000Z,31
2018-10-19T09:16:15.000Z,31
2018-10-19T09:17:15.000Z,31
2018-10-19T09:18:15.000Z,31
2018-10-19T09:19:15.000Z,31
2018-10-19T09:21:15.000Z,31
2018-10-19T09:22:15.000Z,31
2018-10-19T09:23:15.000Z,31
2018-10-19T09:24:15.000Z,31
2018-10-19T09:25:15.000Z,31
2018-10-19T09:26:15.000Z,31
2018-10-19T09:27:15.000Z,31
2018-10-19T09:28:15.000Z,31
2018-10-19T09:29:15.000Z,31
2018-10-19T09:30:15.000Z,31
2018-10-19T09:31:15.000Z,31
2018-10-19T09:32:15.000Z,31
2018-10-19T09:33:15.000Z,31
2018-10-19T09:34:15.000Z,31
2018-10-19T09:35:15.000Z,31
2018-10-19T09:36:15.000Z,31
2018-10-19T09:37:15.000Z,31
2018-10-19T09:38:15.000Z,31
2018-10-19T09:39:15.000Z,30
2018-10-19T09:40:15.000Z,31
2018-10-19T09:41:15.000Z,30
2018-10-19T09:42:15.000Z,30
2018-10-19T09:43:15.000Z,30
2018-10-19T09:44:15.000Z,30
2018-10-19T09:45:15.000Z,30
2018-10-19T09:46:15.000Z,30
2018-10-19T09:48:15.000Z,30
2018-10-19T09:50:15.000Z,30
2018-10-19T09:51:15.000Z,30
2018-10-19T09:53:15.000Z,30
2018-10-19T09:54:15.000Z,30
2018-10-19T09:55:15.000Z,30
2018-10-19T09:56:15.000Z,30
2018-10-19T09:57:15.000Z,30
2018-10-19T09:59:15.000Z,30
2018-10-19T10:00:15.000Z,30
2018-10-19T10:02:15.000Z,30
2018-10-19T10:03:15.000Z,30
2018-10-19T10:04:15.000Z,30
2018-10-19T10:06:35.000Z,30
2018-10-19T10:07:35.000Z,30
2018-10-19T10:08:35.000Z,30
2018-10-19T10:09:35.000Z,30
2018-10-19T10:10:35.000Z,30
2018-10-19T10:11:35.000Z,30
2018-10-19T10:13:35.000Z,30
2018-10-19T10:14:35.000Z,30
2018-10-19T10:15:35.000Z,30
2018-10-19T10:17:35.000Z,30
2018-10-19T10:18:35.000Z,30
2018-10-19T10:19:35.000Z,30
2018-10-19T10:20:35.000Z,30
2018-10-19T10:21:35.000Z,30
2018-10-19T10:22:35.000Z,30
2018-10-19T10:23:35.000Z,30
2018-10-19T10:25:35.000Z,30
2018-10-19T10:26:35.000Z,30
2018-10-19T10:28:35.000Z,30
2018-10-19T10:29:35.000Z,30
2018-10-19T10:30:35.000Z,30
2018-10-19T10:31:35.000Z,30
2018-10-19T10:32:35.000Z,30
2018-10-19T10:33:35.000Z,30
2018-10-19T10:34:35.000Z,30
2018-10-19T10:35:35.000Z,30
2018-10-19T10:36:35.000Z,30
2018-10-19T10:37:35.000Z,30
2018-10-19T10:38:35.000Z,30
2018-10-19T10:40:35.000Z,30
2018-10-19T10:41:35.000Z,30
2018-10-19T10:42:35.000Z,30
2018-10-19T10:44:35.000Z,30
2018-10-19T10:45:35.000Z,30
2018-10-19T10:46:35.000Z,30
2018-10-19T10:47:35.000Z,30
2018-10-19T10:49:35.000Z,30
2018-10-19T10:50:35.000Z,30
2018-10-19T10:51:35.000Z,30
2018-10-19T10:52:35.000Z,30
2018-10-19T10:53:35.000Z,30
2018-10-19T10:54:35.000Z,30
2018-10-19T10:55:35.000Z,30
2018-10-19T10:56:35.000Z,30
2018-10-19T10:57:35.000Z,30
2018-10-19T10:58:35.000Z,30
2018-10-19T10:59:35.000Z,30
2018-10-19T11:00:35.000Z,30
2018-10-19T11:01:35.000Z,29
2018-10-19T11:02:35.000Z,29
2018-10-19T11:03:35.000Z,29
2018-10-19T11:04:35.000Z,29
2018-10-19T11:06:35.000Z,28
2018-10-19T11:07:35.000Z,28
2018-10-19T11:08:35.000Z,28
2018-10-19T11:09:35.000Z,27
2018-10-19T11:10:36.000Z,27
2018-10-19T11:11:36.000Z,26
2018-10-19T11:12:36.000Z,26
2018-10-19T11:13:36.000Z,26
2018-10-19T11:14:36.000Z,25
2018-10-19T11:15:36.000Z,25
2018-10-19T11:17:36.000Z,24
2018-10-19T11:18:36.000Z,24
2018-10-19T11:19:36.000Z,24
2018-10-19T11:20:36.000Z,24
2018-10-19T11:21:36.000Z,24
2018-10-19T11:22:36.000Z,24
2018-10-19T11:23:36.000Z,24
2018-10-19T11:24:36.000Z,24
2018-10-19T11:25:36.000Z,25
2018-10-19T11:26:36.000Z,25
2018-10-19T11:27:36.000Z,25
2018-10-19T11:28:36.000Z,25
2018-10-19T11:29:36.000Z,26
2018-10-19T11:30:36.000Z,26
2018-10-19T11:31:36.000Z,26
2018-10-19T11:32:36.000Z,27
2018-10-19T11:33:36.000Z,27
2018-10-19T11:34:36.000Z,27
2018-10-19T11:35:36.000Z,27
2018-10-19T11:36:36.000Z,27
2018-10-19T11:37:36.000Z,27
2018-10-19T11:38:36.000Z,27
2018-10-19T11:39:36.000Z,28
2018-10-19T11:40:36.000Z,28
2018-10-19T11:41:36.000Z,28
2018-10-19T11:42:36.000Z,28
2018-10-19T11:43:36.000Z,28
2018-10-19T11:44:36.000Z,28
2018-10-19T11:45:36.000Z,28
2018-10-19T11:46:36.000Z,28
2018-10-19T11:47:36.000Z,28
2018-10-19T11:48:36.000Z,28
2018-10-19T11:50:36.000Z,29
2018-10-19T11:51:36.000Z,29
2018-10-19T11:52:36.000Z,29
2018-10-19T11:54:36.000Z,29
2018-10-19T11:55:36.000Z,29
2018-10-19T11:56:36.000Z,29
2018-10-19T11:57:36.000Z,29
2018-10-19T11:58:36.000Z,29
2018-10-19T11:59:36.000Z,29
2018-10-19T12:00:36.000Z,29
2018-10-19T12:01:36.000Z,29
2018-10-19T12:02:36.000Z,29
2018-10-19T12:04:36.000Z,29
2018-10-19T12:05:36.000Z,29
2018-10-19T12:06:36.000Z,30
2018-10-19T12:07:36.000Z,30
2018-10-19T12:08:36.000Z,30
2018-10-19T12:09:36.000Z,30
2018-10-19T12:10:36.000Z,31
2018-10-19T12:11:36.000Z,31
2018-10-19T12:12:36.000Z,31
2018-10-19T12:13:36.000Z,31
2018-10-19T12:14:35.000Z,31
2018-10-19T12:15:35.000Z,31
2018-10-19T12:16:35.000Z,31
2018-10-19T12:17:35.000Z,31
2018-10-19T12:18:35.000Z,31
2018-10-19T12:19:35.000Z,31
2018-10-19T12:20:35.000Z,31
2018-10-19T12:21:35.000Z,32
2018-10-19T12:22:35.000Z,32
2018-10-19T12:23:35.000Z,32
2018-10-19T12:24:35.000Z,32
2018-10-19T12:25:35.000Z,32
2018-10-19T12:26:35.000Z,32
2018-10-19T12:27:35.000Z,32
2018-10-19T12:28:35.000Z,32
2018-10-19T12:29:35.000Z,33
2018-10-19T12:30:35.000Z,33
2018-10-19T12:31:35.000Z,33
2018-10-19T12:32:35.000Z,33
2018-10-19T12:33:35.000Z,33
2018-10-19T12:34:35.000Z,33
2018-10-19T12:35:35.000Z,33
2018-10-19T12:36:35.000Z,33
2018-10-19T12:37:35.000Z,33
2018-10-19T12:38:35.000Z,33
2018-10-19T12:39:35.000Z,33
2018-10-19T12:40:35.000Z,33
2018-10-19T12:41:35.000Z,33
2018-10-19T12:42:35.000Z,33
2018-10-19T12:43:35.000Z,33
2018-10-19T12:44:35.000Z,34
2018-10-19T12:45:35.000Z,34
2018-10-19T12:46:35.000Z,34
2018-10-19T12:48:35.000Z,33
2018-10-19T12:50:35.000Z,34
2018-10-19T12:51:35.000Z,34
2018-10-19T12:52:35.000Z,34
2018-10-19T12:53:35.000Z,34
2018-10-19T12:54:35.000Z,34
2018-10-19T12:55:35.000Z,34
2018-10-19T12:56:35.000Z,34
2018-10-19T12:58:35.000Z,34
2018-10-19T12:59:35.000Z,35
2018-10-19T13:00:35.000Z,35
2018-10-19T13:01:35.000Z,35
2018-10-19T13:02:35.000Z,35
2018-10-19T13:04:35.000Z,35
2018-10-19T13:05:35.000Z,35
2018-10-19T13:06:35.000Z,35
2018-10-19T13:07:35.000Z,35
2018-10-19T13:08:35.000Z,35
2018-10-19T13:09:35.000Z,35
2018-10-19T13:10:35.000Z,35
2018-10-19T13:11:35.000Z,35
2018-10-19T13:13:35.000Z,35
2018-10-19T13:14:35.000Z,35
2018-10-19T13:15:35.000Z,35
2018-10-19T13:16:35.000Z,35
2018-10-19T13:17:36.000Z,35
2018-10-19T13:50:53.000Z,37
2018-10-19T13:51:53.000Z,38
2018-10-19T13:52:53.000Z,38
2018-10-19T13:54:53.000Z,38
2018-10-19T13:55:53.000Z,38
2018-10-19T13:57:53.000Z,37
2018-10-19T13:58:53.000Z,37
2018-10-19T13:59:53.000Z,37
2018-10-19T14:00:53.000Z,36
2018-10-19T14:01:53.000Z,36
2018-10-19T14:02:53.000Z,36
2018-10-19T14:03:53.000Z,36
2018-10-19T14:04:53.000Z,36
2018-10-19T14:06:53.000Z,35
2018-10-19T14:07:53.000Z,35
2018-10-19T14:08:53.000Z,35
2018-10-19T14:09:53.000Z,35
2018-10-19T14:10:53.000Z,35
2018-10-19T14:11:53.000Z,35
2018-10-19T14:12:53.000Z,35
2018-10-19T14:13:53.000Z,35
2018-10-19T14:14:53.000Z,34
2018-10-19T14:15:53.000Z,34
2018-10-19T14:16:53.000Z,34
2018-10-19T14:17:53.000Z,34
2018-10-19T14:18:53.000Z,34
2018-10-19T14:20:53.000Z,34
2018-10-19T14:21:53.000Z,34
2018-10-19T14:23:53.000Z,34
2018-10-19T14:24:53.000Z,34
2018-10-19T14:25:53.000Z,34
2018-10-19T14:26:53.000Z,34
2018-10-19T14:27:53.000Z,34
2018-10-19T14:28:53.000Z,33
2018-10-19T14:29:53.000Z,34
2018-10-19T14:30:53.000Z,34
2018-10-19T14:31:53.000Z,33
2018-10-19T14:32:53.000Z,33
2018-10-19T14:34:53.000Z,33
2018-10-19T14:37:25.000Z,33
2018-10-19T14:38:25.000Z,33
2018-10-19T14:39:25.000Z,33
2018-10-19T14:40:25.000Z,33
2018-10-19T14:41:25.000Z,33
2018-10-19T14:42:25.000Z,33
2018-10-19T14:43:25.000Z,33
2018-10-19T14:44:25.000Z,33
2018-10-19T14:45:25.000Z,32
2018-10-19T14:46:25.000Z,32
2018-10-19T14:47:58.000Z,32
2018-10-19T14:48:58.000Z,32
2018-10-19T14:49:58.000Z,32
2018-10-19T14:50:58.000Z,32
2018-10-19T14:52:58.000Z,32
2018-10-19T14:54:58.000Z,32
2018-10-19T14:55:58.000Z,32
2018-10-19T14:56:58.000Z,32
2018-10-19T14:57:58.000Z,32
2018-10-19T14:58:58.000Z,32
2018-10-19T14:59:58.000Z,32
2018-10-19T15:00:58.000Z,32
2018-10-19T15:01:58.000Z,32
2018-10-19T15:03:57.000Z,32
2018-10-19T15:04:57.000Z,32
2018-10-19T15:05:57.000Z,32
2018-10-19T15:06:57.000Z,32
2018-10-19T15:08:57.000Z,32
2018-10-19T15:09:57.000Z,32
2018-10-19T15:10:57.000Z,32
2018-10-19T15:11:57.000Z,32
2018-10-19T15:12:57.000Z,32
2018-10-19T15:13:57.000Z,32
2018-10-19T15:14:57.000Z,32
2018-10-19T15:15:57.000Z,32
2018-10-19T15:16:57.000Z,32
2018-10-19T15:18:57.000Z,31
2018-10-19T15:19:57.000Z,31
2018-10-19T15:20:57.000Z,32
2018-10-19T15:21:57.000Z,31
2018-10-19T15:22:57.000Z,31
2018-10-19T15:23:58.000Z,31
2018-10-19T15:24:58.000Z,31
2018-10-19T15:25:58.000Z,31
2018-10-19T15:26:58.000Z,31
2018-10-19T15:27:58.000Z,31
2018-10-19T15:28:58.000Z,31
2018-10-19T15:29:58.000Z,31
2018-10-19T15:31:58.000Z,31
2018-10-19T15:32:58.000Z,31
2018-10-19T15:33:58.000Z,31
2018-10-19T15:34:58.000Z,31
2018-10-19T15:35:58.000Z,31
2018-10-19T15:36:58.000Z,31
2018-10-19T15:37:58.000Z,31
2018-10-19T15:38:58.000Z,31
2018-10-19T15:39:58.000Z,31
2018-10-19T15:40:58.000Z,31
2018-10-19T15:42:58.000Z,31
2018-10-19T15:43:58.000Z,31
2018-10-19T15:44:58.000Z,31
2018-10-19T15:45:58.000Z,31
2018-10-19T15:46:58.000Z,31
2018-10-19T15:48:58.000Z,31
2018-10-19T15:49:58.000Z,31
2018-10-19T15:50:58.000Z,31
2018-10-19T15:52:58.000Z,31
2018-10-19T15:53:58.000Z,31
2018-10-19T15:54:58.000Z,32
2018-10-19T15:56:58.000Z,31
2018-10-19T15:58:58.000Z,31
2018-10-19T15:59:58.000Z,32
2018-10-19T16:00:58.000Z,32
2018-10-19T16:01:58.000Z,32
2018-10-19T16:02:58.000Z,32
2018-10-19T16:03:58.000Z,32
2018-10-19T16:04:58.000Z,32
2018-10-19T16:05:58.000Z,31
2018-10-19T16:06:58.000Z,32
2018-10-19T16:08:58.000Z,31
2018-10-19T16:09:58.000Z,32
2018-10-19T16:10:58.000Z,31
2018-10-19T16:11:58.000Z,32
2018-10-19T16:12:58.000Z,31
2018-10-19T16:13:58.000Z,32
2018-10-19T16:14:58.000Z,32
2018-10-19T16:15:58.000Z,32
2018-10-19T16:16:58.000Z,32
2018-10-19T16:17:58.000Z,32
2018-10-19T16:18:58.000Z,32
2018-10-19T16:19:58.000Z,32
2018-10-19T16:20:58.000Z,32
2018-10-19T16:21:58.000Z,31
2018-10-19T16:22:58.000Z,32
2018-10-19T16:23:58.000Z,31
2018-10-19T16:24:58.000Z,32
2018-10-19T16:25:58.000Z,32
2018-10-19T16:26:59.000Z,31
2018-10-19T16:27:59.000Z,32
2018-10-19T16:28:59.000Z,32
2018-10-19T16:29:59.000Z,32
2018-10-19T16:30:59.000Z,31
2018-10-19T16:31:59.000Z,32
2018-10-19T16:33:59.000Z,31
2018-10-19T16:34:59.000Z,32
2018-10-19T16:35:59.000Z,32
2018-10-19T16:36:59.000Z,31
2018-10-19T16:37:59.000Z,32
2018-10-19T16:38:59.000Z,32
2018-10-19T16:39:59.000Z,31
2018-10-19T16:40:59.000Z,32
2018-10-19T16:42:59.000Z,31
2018-10-19T16:43:59.000Z,32
2018-10-19T16:44:59.000Z,32
2018-10-19T16:45:59.000Z,32
2018-10-19T16:46:59.000Z,32
2018-10-19T16:47:59.000Z,32
2018-10-19T16:48:59.000Z,32
2018-10-19T16:49:59.000Z,32
2018-10-19T16:50:59.000Z,32
2018-10-19T16:51:59.000Z,32
2018-10-19T16:53:59.000Z,31
2018-10-19T16:54:59.000Z,32
2018-10-19T16:55:59.000Z,32
2018-10-19T16:56:59.000Z,32
2018-10-19T16:57:59.000Z,32